Costa Europa — IBCE — position and weather

sailwx.info

Track history (hours):
 
Tides and Currents Weather Stations Pressure Air Temp Water Temp Dewpoint Dewpoint Depression Visibility Wind Speed Wind Dir Waves Ship Positions

Costa Europa

Last reported at 2010-Mar-15 17:05 UTC. Time now 2019-Jul-16 10:07 UTC.
Position N 38°33' E 019°49'.
Warning: this ship's position is years out of date!

Type: Passenger vessel. MMSI: 247062900.

Date/timePositionNaut miles runAvg speedWind from/ knotsBaromVisibWave heightAir tempDewpointWater temp
2010-Mar-15 17:05N 38°33' E 019°49'1511.9
2010-Mar-15 15:50N 38°19' E 019°54'811.7
2010-Mar-15 15:08N 38°11' E 019°56'1014.2
2010-Mar-15 14:25N 38°01' E 020°00'2115.3
2010-Mar-15 13:05N 37°42' E 020°09'1015.5
2010-Mar-15 12:24N 37°32' E 020°14'1915.8
2010-Mar-15 11:11N 37°15' E 020°25'1218.7
2010-Mar-15 10:32N 37°08' E 020°38'2618.5
2010-Mar-15 09:07N 36°54' E 021°06'9517.8
2010-Mar-15 03:48N 35°58' E 022°40'516.3
2010-Mar-15 03:32N 35°55' E 022°45'2213.1
2010-Mar-15 01:50N 35°34' E 022°53'813.2
2010-Mar-15 01:12N 35°26' E 022°57'12915.7
2010-Mar-14 16:57N 34°16' E 025°09'  
Track history (hours):
 
Tides and Currents Weather Stations Pressure Air Temp Water Temp Dewpoint Dewpoint Depression Visibility Wind Speed Wind Dir Waves Ship Positions

Costa Europa

Last reported at 2010-Mar-15 17:05 UTC. Time now 2019-Jul-16 10:07 UTC.
Position N 38°33' E 019°49'.
Warning: this ship's position is years out of date!

Type: Passenger vessel. MMSI: 247062900.

Date/timePositionNaut miles runAvg speedWind from/ knotsBaromVisibWave heightAir tempDewpointWater temp
2010-Mar-15 17:05N 38°33' E 019°49'1511.9
2010-Mar-15 15:50N 38°19' E 019°54'811.7
2010-Mar-15 15:08N 38°11' E 019°56'1014.2
2010-Mar-15 14:25N 38°01' E 020°00'2115.3
2010-Mar-15 13:05N 37°42' E 020°09'1015.5
2010-Mar-15 12:24N 37°32' E 020°14'1915.8
2010-Mar-15 11:11N 37°15' E 020°25'1218.7
2010-Mar-15 10:32N 37°08' E 020°38'2618.5
2010-Mar-15 09:07N 36°54' E 021°06'9517.8
2010-Mar-15 03:48N 35°58' E 022°40'516.3
2010-Mar-15 03:32N 35°55' E 022°45'2213.1
2010-Mar-15 01:50N 35°34' E 022°53'813.2
2010-Mar-15 01:12N 35°26' E 022°57'12915.7
2010-Mar-14 16:57N 34°16' E 025°09'  

Dump ship's entire track history